sensor_id;sensor_type;location;lat;lon;timestamp;P1;durP1;ratioP1;P2;durP2;ratioP2
56657;SDS011;42530;52.240;19.354;2022-10-13T00:00:25;36.97;;;27.77;;
56657;SDS011;42530;52.240;19.354;2022-10-13T00:02:51;30.83;;;27.65;;
56657;SDS011;42530;52.240;19.354;2022-10-13T00:05:17;31.92;;;27.30;;
56657;SDS011;42530;52.240;19.354;2022-10-13T00:07:42;37.42;;;28.83;;
56657;SDS011;42530;52.240;19.354;2022-10-13T00:10:51;32.50;;;26.17;;
56657;SDS011;42530;52.240;19.354;2022-10-13T00:13:17;28.60;;;24.55;;
56657;SDS011;42530;52.240;19.354;2022-10-13T00:15:43;27.58;;;24.70;;
56657;SDS011;42530;52.240;19.354;2022-10-13T00:18:10;37.80;;;27.27;;
56657;SDS011;42530;52.240;19.354;2022-10-13T00:20:40;29.08;;;25.02;;
56657;SDS011;42530;52.240;19.354;2022-10-13T00:23:10;34.55;;;26.10;;
56657;SDS011;42530;52.240;19.354;2022-10-13T00:25:39;29.13;;;25.92;;
56657;SDS011;42530;52.240;19.354;2022-10-13T00:28:06;29.60;;;25.23;;
56657;SDS011;42530;52.240;19.354;2022-10-13T00:30:35;28.85;;;25.58;;
56657;SDS011;42530;52.240;19.354;2022-10-13T00:33:02;28.80;;;25.85;;
56657;SDS011;42530;52.240;19.354;2022-10-13T00:35:27;32.42;;;24.50;;
56657;SDS011;42530;52.240;19.354;2022-10-13T00:37:53;27.45;;;24.35;;
56657;SDS011;42530;52.240;19.354;2022-10-13T00:40:19;29.05;;;26.08;;
56657;SDS011;42530;52.240;19.354;2022-10-13T00:42:44;31.30;;;26.73;;
56657;SDS011;42530;52.240;19.354;2022-10-13T00:47:44;31.92;;;28.80;;
56657;SDS011;42530;52.240;19.354;2022-10-13T00:50:15;30.83;;;27.50;;
56657;SDS011;42530;52.240;19.354;2022-10-13T00:52:43;30.88;;;27.63;;
56657;SDS011;42530;52.240;19.354;2022-10-13T00:55:10;29.63;;;26.15;;
56657;SDS011;42530;52.240;19.354;2022-10-13T00:57:38;33.10;;;27.35;;
56657;SDS011;42530;52.240;19.354;2022-10-13T01:00:06;37.88;;;26.40;;
56657;SDS011;42530;52.240;19.354;2022-10-13T01:02:34;34.20;;;26.85;;
56657;SDS011;42530;52.240;19.354;2022-10-13T01:05:02;33.28;;;26.00;;
56657;SDS011;42530;52.240;19.354;2022-10-13T01:07:29;27.38;;;24.42;;
56657;SDS011;42530;52.240;19.354;2022-10-13T01:09:55;38.40;;;28.35;;
56657;SDS011;42530;52.240;19.354;2022-10-13T01:12:25;27.80;;;25.02;;
56657;SDS011;42530;52.240;19.354;2022-10-13T01:18:07;30.23;;;25.60;;
56657;SDS011;42530;52.240;19.354;2022-10-13T01:23:41;27.85;;;24.10;;
56657;SDS011;42530;52.240;19.354;2022-10-13T01:26:34;25.10;;;22.73;;
56657;SDS011;42530;52.240;19.354;2022-10-13T01:32:16;27.92;;;24.92;;
56657;SDS011;42530;52.240;19.354;2022-10-13T01:39:51;28.08;;;24.15;;
56657;SDS011;42530;52.240;19.354;2022-10-13T01:42:23;27.60;;;24.63;;
56657;SDS011;42530;52.240;19.354;2022-10-13T01:44:56;27.60;;;23.35;;
56657;SDS011;42530;52.240;19.354;2022-10-13T01:47:24;35.10;;;25.25;;
56657;SDS011;42530;52.240;19.354;2022-10-13T01:49:52;32.08;;;24.45;;
56657;SDS011;42530;52.240;19.354;2022-10-13T01:52:20;27.77;;;24.80;;
56657;SDS011;42530;52.240;19.354;2022-10-13T01:54:51;27.27;;;24.42;;
56657;SDS011;42530;52.240;19.354;2022-10-13T01:57:51;29.50;;;24.35;;
56657;SDS011;42530;52.240;19.354;2022-10-13T02:02:45;29.50;;;24.88;;
56657;SDS011;42530;52.240;19.354;2022-10-13T02:08:04;27.05;;;23.08;;
56657;SDS011;42530;52.240;19.354;2022-10-13T02:10:57;26.10;;;21.17;;
56657;SDS011;42530;52.240;19.354;2022-10-13T02:13:33;34.50;;;23.15;;
56657;SDS011;42530;52.240;19.354;2022-10-13T02:16:01;27.10;;;24.02;;
56657;SDS011;42530;52.240;19.354;2022-10-13T02:18:30;23.35;;;20.10;;
56657;SDS011;42530;52.240;19.354;2022-10-13T02:20:58;27.20;;;23.17;;
56657;SDS011;42530;52.240;19.354;2022-10-13T02:23:25;24.83;;;22.33;;
56657;SDS011;42530;52.240;19.354;2022-10-13T02:25:51;30.23;;;24.35;;
56657;SDS011;42530;52.240;19.354;2022-10-13T02:28:18;25.58;;;23.00;;
56657;SDS011;42530;52.240;19.354;2022-10-13T02:30:44;30.25;;;22.45;;
56657;SDS011;42530;52.240;19.354;2022-10-13T02:33:10;25.48;;;23.10;;
56657;SDS011;42530;52.240;19.354;2022-10-13T02:35:37;25.70;;;23.25;;
56657;SDS011;42530;52.240;19.354;2022-10-13T02:38:03;28.30;;;23.55;;
56657;SDS011;42530;52.240;19.354;2022-10-13T02:40:29;24.83;;;22.33;;
56657;SDS011;42530;52.240;19.354;2022-10-13T02:42:54;30.02;;;23.55;;
56657;SDS011;42530;52.240;19.354;2022-10-13T02:45:20;29.15;;;23.15;;
56657;SDS011;42530;52.240;19.354;2022-10-13T02:47:45;24.90;;;22.30;;
56657;SDS011;42530;52.240;19.354;2022-10-13T02:50:11;22.98;;;20.80;;
56657;SDS011;42530;52.240;19.354;2022-10-13T02:52:37;27.02;;;24.17;;
56657;SDS011;42530;52.240;19.354;2022-10-13T02:55:02;27.02;;;22.70;;
56657;SDS011;42530;52.240;19.354;2022-10-13T02:57:28;28.25;;;22.88;;
56657;SDS011;42530;52.240;19.354;2022-10-13T02:59:54;24.15;;;20.83;;
56657;SDS011;42530;52.240;19.354;2022-10-13T03:02:19;27.98;;;22.73;;
56657;SDS011;42530;52.240;19.354;2022-10-13T03:04:45;36.58;;;23.27;;
56657;SDS011;42530;52.240;19.354;2022-10-13T03:07:11;27.27;;;21.70;;
56657;SDS011;42530;52.240;19.354;2022-10-13T03:09:36;23.75;;;21.40;;
56657;SDS011;42530;52.240;19.354;2022-10-13T03:12:02;25.27;;;22.65;;
56657;SDS011;42530;52.240;19.354;2022-10-13T03:14:28;27.50;;;24.75;;
56657;SDS011;42530;52.240;19.354;2022-10-13T03:16:53;27.13;;;24.45;;
56657;SDS011;42530;52.240;19.354;2022-10-13T03:19:19;29.08;;;24.50;;
56657;SDS011;42530;52.240;19.354;2022-10-13T03:21:44;24.55;;;21.92;;
56657;SDS011;42530;52.240;19.354;2022-10-13T03:24:10;27.95;;;24.25;;
56657;SDS011;42530;52.240;19.354;2022-10-13T03:26:36;31.75;;;25.60;;
56657;SDS011;42530;52.240;19.354;2022-10-13T03:29:02;27.00;;;23.63;;
56657;SDS011;42530;52.240;19.354;2022-10-13T03:31:27;29.75;;;24.80;;
56657;SDS011;42530;52.240;19.354;2022-10-13T03:33:53;29.42;;;26.60;;
56657;SDS011;42530;52.240;19.354;2022-10-13T03:36:18;31.20;;;27.70;;
56657;SDS011;42530;52.240;19.354;2022-10-13T03:38:44;33.63;;;27.02;;
56657;SDS011;42530;52.240;19.354;2022-10-13T03:41:11;33.85;;;29.08;;
56657;SDS011;42530;52.240;19.354;2022-10-13T03:43:38;37.85;;;28.58;;
56657;SDS011;42530;52.240;19.354;2022-10-13T03:46:05;39.78;;;28.63;;
56657;SDS011;42530;52.240;19.354;2022-10-13T03:48:32;30.40;;;27.23;;
56657;SDS011;42530;52.240;19.354;2022-10-13T03:51:03;32.13;;;28.85;;
56657;SDS011;42530;52.240;19.354;2022-10-13T03:53:30;34.42;;;30.65;;
56657;SDS011;42530;52.240;19.354;2022-10-13T03:55:56;36.38;;;28.67;;
56657;SDS011;42530;52.240;19.354;2022-10-13T03:58:22;35.05;;;30.48;;
56657;SDS011;42530;52.240;19.354;2022-10-13T04:00:49;31.05;;;27.70;;
56657;SDS011;42530;52.240;19.354;2022-10-13T04:03:16;34.08;;;29.17;;
56657;SDS011;42530;52.240;19.354;2022-10-13T04:05:42;33.30;;;28.35;;
56657;SDS011;42530;52.240;19.354;2022-10-13T04:08:08;34.47;;;30.77;;
56657;SDS011;42530;52.240;19.354;2022-10-13T04:10:34;33.33;;;29.75;;
56657;SDS011;42530;52.240;19.354;2022-10-13T04:13:00;33.15;;;29.50;;
56657;SDS011;42530;52.240;19.354;2022-10-13T04:15:25;35.53;;;29.67;;
56657;SDS011;42530;52.240;19.354;2022-10-13T04:17:51;29.88;;;26.83;;
56657;SDS011;42530;52.240;19.354;2022-10-13T04:20:17;36.95;;;27.92;;
56657;SDS011;42530;52.240;19.354;2022-10-13T04:22:42;34.20;;;29.58;;
56657;SDS011;42530;52.240;19.354;2022-10-13T04:25:08;33.30;;;29.23;;
56657;SDS011;42530;52.240;19.354;2022-10-13T04:27:34;34.30;;;27.92;;
56657;SDS011;42530;52.240;19.354;2022-10-13T04:30:03;36.72;;;29.40;;
56657;SDS011;42530;52.240;19.354;2022-10-13T04:32:30;34.65;;;27.08;;
56657;SDS011;42530;52.240;19.354;2022-10-13T04:34:55;33.22;;;27.45;;
56657;SDS011;42530;52.240;19.354;2022-10-13T04:37:21;28.67;;;25.35;;
56657;SDS011;42530;52.240;19.354;2022-10-13T04:39:47;34.22;;;28.58;;
56657;SDS011;42530;52.240;19.354;2022-10-13T04:42:13;30.50;;;26.55;;
56657;SDS011;42530;52.240;19.354;2022-10-13T04:44:38;30.88;;;27.67;;
56657;SDS011;42530;52.240;19.354;2022-10-13T04:47:04;34.45;;;29.77;;
56657;SDS011;42530;52.240;19.354;2022-10-13T04:49:29;31.40;;;27.85;;
56657;SDS011;42530;52.240;19.354;2022-10-13T04:51:55;36.95;;;25.80;;
56657;SDS011;42530;52.240;19.354;2022-10-13T04:54:21;30.15;;;26.85;;
56657;SDS011;42530;52.240;19.354;2022-10-13T04:56:46;29.10;;;25.92;;
56657;SDS011;42530;52.240;19.354;2022-10-13T04:59:11;29.98;;;25.70;;
56657;SDS011;42530;52.240;19.354;2022-10-13T05:01:37;25.30;;;22.85;;
56657;SDS011;42530;52.240;19.354;2022-10-13T05:04:03;30.50;;;25.08;;
56657;SDS011;42530;52.240;19.354;2022-10-13T05:06:30;29.83;;;26.60;;
56657;SDS011;42530;52.240;19.354;2022-10-13T05:08:57;31.77;;;27.70;;
56657;SDS011;42530;52.240;19.354;2022-10-13T05:11:23;30.42;;;26.48;;
56657;SDS011;42530;52.240;19.354;2022-10-13T05:13:53;28.38;;;25.38;;
56657;SDS011;42530;52.240;19.354;2022-10-13T05:16:19;30.95;;;27.67;;
56657;SDS011;42530;52.240;19.354;2022-10-13T05:18:46;30.15;;;27.17;;
56657;SDS011;42530;52.240;19.354;2022-10-13T05:21:13;43.92;;;30.73;;
56657;SDS011;42530;52.240;19.354;2022-10-13T05:23:40;36.60;;;30.17;;
56657;SDS011;42530;52.240;19.354;2022-10-13T05:26:08;31.83;;;28.27;;
56657;SDS011;42530;52.240;19.354;2022-10-13T05:28:35;33.75;;;29.17;;
56657;SDS011;42530;52.240;19.354;2022-10-13T05:31:10;29.02;;;25.63;;
56657;SDS011;42530;52.240;19.354;2022-10-13T05:33:37;28.60;;;25.83;;
56657;SDS011;42530;52.240;19.354;2022-10-13T05:36:08;28.50;;;25.58;;
56657;SDS011;42530;52.240;19.354;2022-10-13T05:38:35;29.67;;;26.48;;
56657;SDS011;42530;52.240;19.354;2022-10-13T05:41:02;34.78;;;29.10;;
56657;SDS011;42530;52.240;19.354;2022-10-13T05:43:32;32.03;;;27.45;;
56657;SDS011;42530;52.240;19.354;2022-10-13T05:45:58;34.17;;;29.05;;
56657;SDS011;42530;52.240;19.354;2022-10-13T05:48:24;35.83;;;30.25;;
56657;SDS011;42530;52.240;19.354;2022-10-13T05:50:50;33.50;;;29.50;;
56657;SDS011;42530;52.240;19.354;2022-10-13T05:53:15;28.08;;;25.23;;
56657;SDS011;42530;52.240;19.354;2022-10-13T05:55:41;31.17;;;25.80;;
56657;SDS011;42530;52.240;19.354;2022-10-13T05:58:07;38.17;;;24.65;;
56657;SDS011;42530;52.240;19.354;2022-10-13T06:00:33;33.00;;;23.48;;
56657;SDS011;42530;52.240;19.354;2022-10-13T06:03:03;36.45;;;24.63;;
56657;SDS011;42530;52.240;19.354;2022-10-13T06:05:33;27.30;;;24.67;;
56657;SDS011;42530;52.240;19.354;2022-10-13T06:07:58;24.10;;;21.33;;
56657;SDS011;42530;52.240;19.354;2022-10-13T06:10:24;23.30;;;20.88;;
56657;SDS011;42530;52.240;19.354;2022-10-13T06:12:50;27.38;;;22.52;;
56657;SDS011;42530;52.240;19.354;2022-10-13T06:15:16;26.45;;;23.48;;
56657;SDS011;42530;52.240;19.354;2022-10-13T06:17:41;25.55;;;22.23;;
56657;SDS011;42530;52.240;19.354;2022-10-13T06:20:07;30.48;;;22.58;;
56657;SDS011;42530;52.240;19.354;2022-10-13T06:22:34;26.02;;;22.38;;
56657;SDS011;42530;52.240;19.354;2022-10-13T06:25:00;24.77;;;21.83;;
56657;SDS011;42530;52.240;19.354;2022-10-13T06:27:26;30.45;;;23.13;;
56657;SDS011;42530;52.240;19.354;2022-10-13T06:29:51;33.97;;;21.65;;
56657;SDS011;42530;52.240;19.354;2022-10-13T06:32:17;24.13;;;21.48;;
56657;SDS011;42530;52.240;19.354;2022-10-13T06:34:42;28.65;;;21.85;;
56657;SDS011;42530;52.240;19.354;2022-10-13T06:37:07;23.33;;;21.05;;
56657;SDS011;42530;52.240;19.354;2022-10-13T06:39:34;27.27;;;22.85;;
56657;SDS011;42530;52.240;19.354;2022-10-13T06:41:59;26.88;;;22.65;;
56657;SDS011;42530;52.240;19.354;2022-10-13T06:44:25;23.95;;;21.52;;
56657;SDS011;42530;52.240;19.354;2022-10-13T06:46:50;27.60;;;22.45;;
56657;SDS011;42530;52.240;19.354;2022-10-13T06:49:16;26.25;;;22.17;;
56657;SDS011;42530;52.240;19.354;2022-10-13T06:51:42;23.17;;;20.17;;
56657;SDS011;42530;52.240;19.354;2022-10-13T06:54:07;25.42;;;21.70;;
56657;SDS011;42530;52.240;19.354;2022-10-13T06:56:32;28.35;;;21.65;;
56657;SDS011;42530;52.240;19.354;2022-10-13T06:58:58;21.88;;;19.60;;
56657;SDS011;42530;52.240;19.354;2022-10-13T07:01:23;25.05;;;19.85;;
56657;SDS011;42530;52.240;19.354;2022-10-13T07:03:49;24.50;;;20.00;;
56657;SDS011;42530;52.240;19.354;2022-10-13T07:06:16;23.85;;;19.92;;
56657;SDS011;42530;52.240;19.354;2022-10-13T07:08:42;24.90;;;18.38;;
56657;SDS011;42530;52.240;19.354;2022-10-13T07:11:08;27.00;;;17.50;;
56657;SDS011;42530;52.240;19.354;2022-10-13T07:13:36;24.10;;;18.42;;
56657;SDS011;42530;52.240;19.354;2022-10-13T07:16:02;30.40;;;17.38;;
56657;SDS011;42530;52.240;19.354;2022-10-13T07:18:28;25.83;;;19.13;;
56657;SDS011;42530;52.240;19.354;2022-10-13T07:20:55;22.70;;;17.63;;
56657;SDS011;42530;52.240;19.354;2022-10-13T07:23:21;24.33;;;18.23;;
56657;SDS011;42530;52.240;19.354;2022-10-13T07:25:46;22.25;;;16.15;;
56657;SDS011;42530;52.240;19.354;2022-10-13T07:28:12;19.00;;;14.70;;
56657;SDS011;42530;52.240;19.354;2022-10-13T07:30:38;19.05;;;14.70;;
56657;SDS011;42530;52.240;19.354;2022-10-13T07:33:04;22.52;;;18.48;;
56657;SDS011;42530;52.240;19.354;2022-10-13T07:35:30;19.35;;;16.45;;
56657;SDS011;42530;52.240;19.354;2022-10-13T07:37:55;24.95;;;18.75;;
56657;SDS011;42530;52.240;19.354;2022-10-13T07:40:21;14.27;;;12.43;;
56657;SDS011;42530;52.240;19.354;2022-10-13T07:42:46;20.02;;;14.68;;
56657;SDS011;42530;52.240;19.354;2022-10-13T07:45:12;17.42;;;15.57;;
56657;SDS011;42530;52.240;19.354;2022-10-13T07:47:38;18.38;;;16.25;;
56657;SDS011;42530;52.240;19.354;2022-10-13T07:50:03;23.17;;;15.02;;
56657;SDS011;42530;52.240;19.354;2022-10-13T07:52:29;18.45;;;16.10;;
56657;SDS011;42530;52.240;19.354;2022-10-13T07:54:54;15.77;;;14.13;;
56657;SDS011;42530;52.240;19.354;2022-10-13T07:57:20;16.40;;;12.70;;
56657;SDS011;42530;52.240;19.354;2022-10-13T07:59:46;18.20;;;13.45;;
56657;SDS011;42530;52.240;19.354;2022-10-13T08:02:12;17.85;;;13.45;;
56657;SDS011;42530;52.240;19.354;2022-10-13T08:04:37;18.25;;;13.18;;
56657;SDS011;42530;52.240;19.354;2022-10-13T08:07:03;15.15;;;13.60;;
56657;SDS011;42530;52.240;19.354;2022-10-13T08:09:29;21.85;;;15.70;;
56657;SDS011;42530;52.240;19.354;2022-10-13T08:11:55;18.88;;;13.18;;
56657;SDS011;42530;52.240;19.354;2022-10-13T08:14:21;13.48;;;11.98;;
56657;SDS011;42530;52.240;19.354;2022-10-13T08:16:46;18.05;;;11.40;;
56657;SDS011;42530;52.240;19.354;2022-10-13T08:19:12;17.30;;;12.30;;
56657;SDS011;42530;52.240;19.354;2022-10-13T08:21:38;20.83;;;14.23;;
56657;SDS011;42530;52.240;19.354;2022-10-13T08:24:04;13.95;;;12.38;;
56657;SDS011;42530;52.240;19.354;2022-10-13T08:26:31;15.23;;;11.20;;
56657;SDS011;42530;52.240;19.354;2022-10-13T08:28:57;13.38;;;12.00;;
56657;SDS011;42530;52.240;19.354;2022-10-13T08:31:23;12.15;;;10.93;;
56657;SDS011;42530;52.240;19.354;2022-10-13T08:33:48;15.25;;;11.13;;
56657;SDS011;42530;52.240;19.354;2022-10-13T08:36:15;12.00;;;10.77;;
56657;SDS011;42530;52.240;19.354;2022-10-13T08:38:41;15.02;;;10.80;;
56657;SDS011;42530;52.240;19.354;2022-10-13T08:41:15;13.32;;;10.38;;
56657;SDS011;42530;52.240;19.354;2022-10-13T08:43:44;12.45;;;11.13;;
56657;SDS011;42530;52.240;19.354;2022-10-13T08:46:15;13.85;;;10.65;;
56657;SDS011;42530;52.240;19.354;2022-10-13T08:48:49;10.75;;;9.68;;
56657;SDS011;42530;52.240;19.354;2022-10-13T08:51:15;16.02;;;11.45;;
56657;SDS011;42530;52.240;19.354;2022-10-13T08:53:42;13.60;;;9.10;;
56657;SDS011;42530;52.240;19.354;2022-10-13T08:56:13;9.85;;;8.85;;
56657;SDS011;42530;52.240;19.354;2022-10-13T08:58:53;11.48;;;10.32;;
56657;SDS011;42530;52.240;19.354;2022-10-13T09:01:26;12.88;;;11.00;;
56657;SDS011;42530;52.240;19.354;2022-10-13T09:06:40;11.00;;;9.10;;
56657;SDS011;42530;52.240;19.354;2022-10-13T09:09:10;14.32;;;9.55;;
56657;SDS011;42530;52.240;19.354;2022-10-13T09:11:40;15.18;;;9.85;;
56657;SDS011;42530;52.240;19.354;2022-10-13T09:14:08;12.40;;;8.77;;
56657;SDS011;42530;52.240;19.354;2022-10-13T09:16:37;9.00;;;7.30;;
56657;SDS011;42530;52.240;19.354;2022-10-13T09:21:50;11.50;;;10.00;;
56657;SDS011;42530;52.240;19.354;2022-10-13T09:24:21;11.50;;;8.73;;
56657;SDS011;42530;52.240;19.354;2022-10-13T09:26:49;14.45;;;10.13;;
56657;SDS011;42530;52.240;19.354;2022-10-13T09:29:27;6.35;;;5.60;;
56657;SDS011;42530;52.240;19.354;2022-10-13T09:31:53;11.52;;;7.38;;
56657;SDS011;42530;52.240;19.354;2022-10-13T09:34:37;6.35;;;5.50;;
56657;SDS011;42530;52.240;19.354;2022-10-13T09:37:03;7.47;;;5.30;;
56657;SDS011;42530;52.240;19.354;2022-10-13T09:39:31;7.43;;;5.32;;
56657;SDS011;42530;52.240;19.354;2022-10-13T09:44:59;7.28;;;4.57;;
56657;SDS011;42530;52.240;19.354;2022-10-13T09:47:36;8.77;;;5.82;;
56657;SDS011;42530;52.240;19.354;2022-10-13T09:50:23;5.90;;;4.15;;
56657;SDS011;42530;52.240;19.354;2022-10-13T09:52:49;7.55;;;4.75;;
56657;SDS011;42530;52.240;19.354;2022-10-13T09:55:29;7.00;;;4.72;;
56657;SDS011;42530;52.240;19.354;2022-10-13T09:57:55;5.03;;;4.40;;
56657;SDS011;42530;52.240;19.354;2022-10-13T10:00:25;6.07;;;5.25;;
56657;SDS011;42530;52.240;19.354;2022-10-13T10:08:15;14.48;;;7.78;;
56657;SDS011;42530;52.240;19.354;2022-10-13T10:10:47;9.98;;;5.47;;
56657;SDS011;42530;52.240;19.354;2022-10-13T10:13:13;6.38;;;4.85;;
56657;SDS011;42530;52.240;19.354;2022-10-13T10:15:55;7.53;;;4.95;;
56657;SDS011;42530;52.240;19.354;2022-10-13T10:18:47;9.55;;;5.35;;
56657;SDS011;42530;52.240;19.354;2022-10-13T10:26:26;4.50;;;4.10;;
56657;SDS011;42530;52.240;19.354;2022-10-13T10:34:26;7.65;;;5.35;;
56657;SDS011;42530;52.240;19.354;2022-10-13T10:45:23;7.00;;;4.82;;
56657;SDS011;42530;52.240;19.354;2022-10-13T10:47:55;6.43;;;4.60;;
56657;SDS011;42530;52.240;19.354;2022-10-13T10:50:25;5.68;;;3.97;;
56657;SDS011;42530;52.240;19.354;2022-10-13T10:58:31;7.15;;;3.97;;
56657;SDS011;42530;52.240;19.354;2022-10-13T11:03:56;4.88;;;3.85;;
56657;SDS011;42530;52.240;19.354;2022-10-13T11:06:34;8.75;;;4.88;;
56657;SDS011;42530;52.240;19.354;2022-10-13T11:09:01;5.45;;;4.95;;
56657;SDS011;42530;52.240;19.354;2022-10-13T11:11:29;10.18;;;4.38;;
56657;SDS011;42530;52.240;19.354;2022-10-13T11:19:04;6.80;;;4.22;;
56657;SDS011;42530;52.240;19.354;2022-10-13T11:32:53;6.22;;;5.70;;
56657;SDS011;42530;52.240;19.354;2022-10-13T11:48:53;7.90;;;5.17;;
56657;SDS011;42530;52.240;19.354;2022-10-13T11:51:36;7.07;;;4.30;;
56657;SDS011;42530;52.240;19.354;2022-10-13T11:56:55;5.60;;;5.03;;
56657;SDS011;42530;52.240;19.354;2022-10-13T11:59:26;7.70;;;5.38;;
56657;SDS011;42530;52.240;19.354;2022-10-13T12:01:52;6.40;;;5.15;;
56657;SDS011;42530;52.240;19.354;2022-10-13T12:04:21;5.05;;;4.53;;
56657;SDS011;42530;52.240;19.354;2022-10-13T12:06:56;7.68;;;6.90;;
56657;SDS011;42530;52.240;19.354;2022-10-13T12:09:24;5.35;;;4.68;;
56657;SDS011;42530;52.240;19.354;2022-10-13T12:12:01;6.25;;;5.28;;
56657;SDS011;42530;52.240;19.354;2022-10-13T12:14:37;8.00;;;6.20;;
56657;SDS011;42530;52.240;19.354;2022-10-13T12:17:17;5.57;;;4.97;;
56657;SDS011;42530;52.240;19.354;2022-10-13T12:19:45;6.70;;;5.60;;
56657;SDS011;42530;52.240;19.354;2022-10-13T12:22:10;5.95;;;4.57;;
56657;SDS011;42530;52.240;19.354;2022-10-13T12:24:36;8.60;;;5.68;;
56657;SDS011;42530;52.240;19.354;2022-10-13T12:27:23;6.45;;;4.63;;
56657;SDS011;42530;52.240;19.354;2022-10-13T12:29:48;8.25;;;5.80;;
56657;SDS011;42530;52.240;19.354;2022-10-13T12:32:20;6.03;;;5.07;;
56657;SDS011;42530;52.240;19.354;2022-10-13T12:37:20;5.78;;;5.18;;
56657;SDS011;42530;52.240;19.354;2022-10-13T12:39:51;6.82;;;5.93;;
56657;SDS011;42530;52.240;19.354;2022-10-13T12:42:18;5.63;;;5.07;;
56657;SDS011;42530;52.240;19.354;2022-10-13T12:44:43;8.20;;;5.13;;
56657;SDS011;42530;52.240;19.354;2022-10-13T12:52:46;6.85;;;5.70;;
56657;SDS011;42530;52.240;19.354;2022-10-13T12:55:15;9.05;;;4.68;;
56657;SDS011;42530;52.240;19.354;2022-10-13T12:57:47;5.30;;;4.15;;
56657;SDS011;42530;52.240;19.354;2022-10-13T13:02:46;8.45;;;5.13;;
56657;SDS011;42530;52.240;19.354;2022-10-13T13:08:02;7.07;;;4.72;;
56657;SDS011;42530;52.240;19.354;2022-10-13T13:10:30;8.73;;;5.05;;
56657;SDS011;42530;52.240;19.354;2022-10-13T13:13:10;5.55;;;4.78;;
56657;SDS011;42530;52.240;19.354;2022-10-13T13:15:38;5.70;;;5.20;;
56657;SDS011;42530;52.240;19.354;2022-10-13T13:18:22;5.22;;;4.65;;
56657;SDS011;42530;52.240;19.354;2022-10-13T13:20:52;11.30;;;5.18;;
56657;SDS011;42530;52.240;19.354;2022-10-13T13:23:18;5.40;;;4.90;;
56657;SDS011;42530;52.240;19.354;2022-10-13T13:25:58;6.18;;;4.93;;
56657;SDS011;42530;52.240;19.354;2022-10-13T13:28:29;8.45;;;5.18;;
56657;SDS011;42530;52.240;19.354;2022-10-13T13:30:56;6.88;;;5.30;;
56657;SDS011;42530;52.240;19.354;2022-10-13T13:33:23;9.77;;;5.45;;
56657;SDS011;42530;52.240;19.354;2022-10-13T13:35:48;6.63;;;5.95;;
56657;SDS011;42530;52.240;19.354;2022-10-13T13:38:14;8.80;;;6.10;;
56657;SDS011;42530;52.240;19.354;2022-10-13T13:40:39;7.28;;;5.05;;
56657;SDS011;42530;52.240;19.354;2022-10-13T13:43:04;6.10;;;5.53;;
56657;SDS011;42530;52.240;19.354;2022-10-13T13:45:32;6.63;;;5.22;;
56657;SDS011;42530;52.240;19.354;2022-10-13T13:47:58;7.85;;;6.75;;
56657;SDS011;42530;52.240;19.354;2022-10-13T13:50:25;8.10;;;5.85;;
56657;SDS011;42530;52.240;19.354;2022-10-13T13:53:00;8.20;;;6.47;;
56657;SDS011;42530;52.240;19.354;2022-10-13T13:55:26;9.02;;;7.20;;
56657;SDS011;42530;52.240;19.354;2022-10-13T13:57:53;9.57;;;6.55;;
56657;SDS011;42530;52.240;19.354;2022-10-13T14:00:19;6.78;;;6.10;;
56657;SDS011;42530;52.240;19.354;2022-10-13T14:02:45;14.18;;;6.43;;
56657;SDS011;42530;52.240;19.354;2022-10-13T14:05:10;9.13;;;7.43;;
56657;SDS011;42530;52.240;19.354;2022-10-13T14:07:36;7.22;;;6.47;;
56657;SDS011;42530;52.240;19.354;2022-10-13T14:10:02;8.57;;;6.35;;
56657;SDS011;42530;52.240;19.354;2022-10-13T14:12:29;7.00;;;5.72;;
56657;SDS011;42530;52.240;19.354;2022-10-13T14:14:55;8.50;;;7.65;;
56657;SDS011;42530;52.240;19.354;2022-10-13T14:17:21;7.22;;;6.53;;
56657;SDS011;42530;52.240;19.354;2022-10-13T14:19:46;10.85;;;7.70;;
56657;SDS011;42530;52.240;19.354;2022-10-13T14:22:12;8.90;;;7.32;;
56657;SDS011;42530;52.240;19.354;2022-10-13T14:24:38;10.85;;;8.38;;
56657;SDS011;42530;52.240;19.354;2022-10-13T14:27:03;8.27;;;7.40;;
56657;SDS011;42530;52.240;19.354;2022-10-13T14:29:29;7.55;;;6.78;;
56657;SDS011;42530;52.240;19.354;2022-10-13T14:31:54;8.20;;;6.95;;
56657;SDS011;42530;52.240;19.354;2022-10-13T14:34:20;7.78;;;6.78;;
56657;SDS011;42530;52.240;19.354;2022-10-13T14:36:45;11.38;;;8.15;;
56657;SDS011;42530;52.240;19.354;2022-10-13T14:39:12;15.65;;;7.65;;
56657;SDS011;42530;52.240;19.354;2022-10-13T14:41:37;16.02;;;8.52;;
56657;SDS011;42530;52.240;19.354;2022-10-13T14:44:03;9.20;;;7.97;;
56657;SDS011;42530;52.240;19.354;2022-10-13T14:46:28;9.32;;;7.43;;
56657;SDS011;42530;52.240;19.354;2022-10-13T14:48:54;8.90;;;8.00;;
56657;SDS011;42530;52.240;19.354;2022-10-13T14:51:21;8.55;;;7.25;;
56657;SDS011;42530;52.240;19.354;2022-10-13T14:53:46;10.57;;;8.10;;
56657;SDS011;42530;52.240;19.354;2022-10-13T14:58:45;12.50;;;7.35;;
56657;SDS011;42530;52.240;19.354;2022-10-13T15:01:12;6.80;;;6.30;;
56657;SDS011;42530;52.240;19.354;2022-10-13T15:03:38;10.38;;;7.50;;
56657;SDS011;42530;52.240;19.354;2022-10-13T15:06:04;12.15;;;8.65;;
56657;SDS011;42530;52.240;19.354;2022-10-13T15:08:30;16.92;;;9.13;;
56657;SDS011;42530;52.240;19.354;2022-10-13T15:10:59;11.55;;;9.98;;
56657;SDS011;42530;52.240;19.354;2022-10-13T15:13:26;18.20;;;12.00;;
56657;SDS011;42530;52.240;19.354;2022-10-13T15:15:52;14.52;;;12.20;;
56657;SDS011;42530;52.240;19.354;2022-10-13T15:18:17;14.00;;;12.55;;
56657;SDS011;42530;52.240;19.354;2022-10-13T15:20:46;13.25;;;11.95;;
56657;SDS011;42530;52.240;19.354;2022-10-13T15:23:13;13.98;;;11.93;;
56657;SDS011;42530;52.240;19.354;2022-10-13T15:25:40;13.55;;;10.73;;
56657;SDS011;42530;52.240;19.354;2022-10-13T15:28:14;11.73;;;10.48;;
56657;SDS011;42530;52.240;19.354;2022-10-13T15:30:39;12.00;;;9.48;;
56657;SDS011;42530;52.240;19.354;2022-10-13T15:33:05;10.75;;;8.40;;
56657;SDS011;42530;52.240;19.354;2022-10-13T15:35:30;10.27;;;9.25;;
56657;SDS011;42530;52.240;19.354;2022-10-13T15:37:57;12.98;;;11.65;;
56657;SDS011;42530;52.240;19.354;2022-10-13T15:40:22;25.05;;;14.93;;
56657;SDS011;42530;52.240;19.354;2022-10-13T15:42:48;22.42;;;15.73;;
56657;SDS011;42530;52.240;19.354;2022-10-13T15:45:14;19.75;;;15.65;;
56657;SDS011;42530;52.240;19.354;2022-10-13T15:47:39;14.48;;;12.98;;
56657;SDS011;42530;52.240;19.354;2022-10-13T15:50:05;12.55;;;10.70;;
56657;SDS011;42530;52.240;19.354;2022-10-13T15:52:35;15.07;;;11.13;;
56657;SDS011;42530;52.240;19.354;2022-10-13T15:55:01;11.52;;;10.43;;
56657;SDS011;42530;52.240;19.354;2022-10-13T15:57:27;13.10;;;11.77;;
56657;SDS011;42530;52.240;19.354;2022-10-13T15:59:55;19.70;;;13.73;;
56657;SDS011;42530;52.240;19.354;2022-10-13T16:02:20;13.65;;;12.05;;
56657;SDS011;42530;52.240;19.354;2022-10-13T16:04:47;17.30;;;12.18;;
56657;SDS011;42530;52.240;19.354;2022-10-13T16:07:12;17.45;;;12.27;;
56657;SDS011;42530;52.240;19.354;2022-10-13T16:11:05;17.83;;;15.88;;
56657;SDS011;42530;52.240;19.354;2022-10-13T16:13:32;20.83;;;16.05;;